DW8626 Madrid ES current weather conditions

sailwx.info

Wind from 067 at 6 knots gusting 14

Air temperature 9.4° C
Dewpoint 0.1° C

Last reported at 2017-Jan-21 16:30 UTC.
Time now 2017-Jan-21 17:26 UTC

Location: N 40°29' W 003°43'.
View on Google Maps.

See reports from other nearby stations

  
Tides and Currents Weather Stations Pressure Air Temp Water Temp Dewpoint Dewpoint Depression Visibility Wind Speed Wind Dir Waves Ship Positions
date/time (UTC)wind fromknots sea level pressurealtimeterstation pressurevisibilityair tempwater tempwave heightnotes
2017-Jan-21 16:46 020 6 gusting 12 8.9
2017-Jan-21 16:30 067 6 gusting 14 9.4
2017-Jan-21 16:16 349 7 gusting 13 9.4
2017-Jan-21 16:01 049 9 gusting 13 9.4
2017-Jan-21 15:46 054 8 gusting 16 9.4
2017-Jan-21 15:31 037 9 gusting 16 9.4
2017-Jan-21 15:16 049 3 gusting 11 10.0
2017-Jan-21 15:01 348 10 gusting 15 10.0
2017-Jan-21 14:46 342 9 gusting 15 10.0
2017-Jan-21 14:31 345 7 gusting 12 10.0
2017-Jan-21 14:15 026 9 gusting 17 9.4
2017-Jan-21 14:00 041 11 gusting 17 9.4
2017-Jan-21 13:45 063 10 gusting 19 9.4
2017-Jan-21 13:30 041 6 gusting 20 9.4
2017-Jan-21 13:15 035 7 gusting 17 9.4
2017-Jan-21 13:00 098 6 gusting 17 9.4
2017-Jan-21 12:45 021 5 gusting 11 9.4
2017-Jan-21 12:30 021 7 gusting 14 8.9
2017-Jan-21 12:15 039 11 gusting 18 8.3
2017-Jan-21 12:00 012 8 gusting 16 7.8
2017-Jan-21 11:45 015 6 gusting 15 7.8
2017-Jan-21 11:30 060 7 gusting 14 7.2
2017-Jan-21 11:15 015 7 gusting 16 7.2
2017-Jan-21 11:01 009 6 gusting 11 6.7
2017-Jan-21 10:45 015 6 gusting 12 6.7
2017-Jan-21 10:31 022 12 gusting 19 6.7
2017-Jan-21 10:16 043 13 gusting 19 6.7
2017-Jan-21 10:01 041 13 gusting 20 6.1
2017-Jan-21 09:46 037 13 gusting 20 6.1
2017-Jan-21 09:31 026 7 gusting 18 6.1
2017-Jan-21 09:16 018 11 gusting 18 5.6
2017-Jan-21 09:01 044 13 gusting 19 5.0
2017-Jan-21 08:46 043 12 gusting 21 5.0
2017-Jan-21 08:31 039 12 gusting 19 5.0
2017-Jan-21 08:16 020 12 gusting 20 5.0
2017-Jan-21 08:00 058 10 gusting 15 5.0
2017-Jan-21 07:45 033 12 gusting 19 5.0
2017-Jan-21 07:30 050 11 gusting 17 5.0
2017-Jan-21 07:15 044 12 gusting 19 5.0
2017-Jan-21 07:00 032 10 gusting 18 5.0
2017-Jan-21 06:45 068 9 gusting 18 5.0
2017-Jan-21 06:30 042 9 gusting 16 4.4
2017-Jan-21 06:15 012 11 gusting 17 4.4
2017-Jan-21 06:00 044 9 gusting 19 4.4
2017-Jan-21 05:45 039 11 gusting 19 4.4
2017-Jan-21 05:30 030 11 gusting 19 5.0
2017-Jan-21 05:15 057 12 gusting 19 5.0
2017-Jan-21 05:01 065 9 gusting 22 5.0
2017-Jan-21 04:31 021 10 gusting 16 5.0
2017-Jan-21 04:16 030 6 gusting 15 5.0
2017-Jan-21 04:01 049 11 gusting 18 5.0
2017-Jan-21 03:46 057 10 gusting 17 5.0
2017-Jan-21 03:31 032 8 gusting 15 5.0
2017-Jan-21 03:16 049 11 gusting 18 5.0
2017-Jan-21 03:01 054 12 gusting 17 5.0
2017-Jan-21 02:46 037 8 gusting 14 5.0
2017-Jan-21 02:31 046 8 gusting 13 5.0
2017-Jan-21 02:15 057 8 gusting 13 4.4
2017-Jan-21 02:00 029 9 gusting 14 4.4
2017-Jan-21 01:45 051 9 gusting 13 4.4
2017-Jan-21 01:30 039 8 gusting 14 4.4
2017-Jan-21 01:15 060 8 gusting 13 4.4
2017-Jan-21 01:00 044 9 gusting 14 4.4
2017-Jan-21 00:45 039 7 gusting 14 4.4
2017-Jan-21 00:30 044 9 gusting 15 4.4
2017-Jan-21 00:15 053 7 gusting 15 4.4
2017-Jan-21 00:00 039 8 gusting 13 4.4
2017-Jan-20 23:45 028 11 gusting 17 4.4
2017-Jan-20 23:30 039 8 gusting 15 4.4
2017-Jan-20 23:15 053 11 gusting 17 4.4
2017-Jan-20 23:01 023 9 gusting 19 4.4
2017-Jan-20 22:46 036 9 gusting 18 4.4
2017-Jan-20 22:31 057 11 gusting 19 4.4
2017-Jan-20 22:16 058 11 gusting 18 5.0
2017-Jan-20 22:01 042 11 gusting 16 4.4
2017-Jan-20 21:46 026 8 gusting 16 4.4
2017-Jan-20 21:31 050 12 gusting 18 4.4
2017-Jan-20 21:16 047 13 gusting 18 4.4
2017-Jan-20 21:01 046 10 gusting 16 4.4
2017-Jan-20 20:46 070 12 gusting 19 4.4
2017-Jan-20 20:31 014 10 gusting 16 3.9
2017-Jan-20 20:15 044 12 gusting 18 3.9
2017-Jan-20 20:00 043 10 gusting 19 3.9
2017-Jan-20 19:45 056 11 gusting 16 4.4
2017-Jan-20 19:30 044 12 gusting 19 3.9
2017-Jan-20 19:15 026 11 gusting 17 3.9
2017-Jan-20 19:00 036 11 gusting 16 3.9
2017-Jan-20 18:45 036 10 gusting 16 4.4
2017-Jan-20 18:30 040 11 gusting 16 4.4
2017-Jan-20 18:15 025 9 gusting 15 4.4
2017-Jan-20 18:00 026 7 gusting 14 4.4
2017-Jan-20 17:45 039 8 gusting 15 4.4
2017-Jan-20 17:30 008 9 gusting 13 5.0
2017-Jan-20 17:16 027 8 gusting 14 5.6
2017-Jan-20 17:01 009 11 gusting 16 5.6
2017-Jan-20 16:46 039 12 gusting 17 5.6
2017-Jan-20 16:31 355 11 gusting 19 5.6
2017-Jan-20 16:16 023 9 gusting 19 6.1
2017-Jan-20 16:01 053 14 gusting 21 6.1
2017-Jan-20 15:46 045 10 gusting 23 6.7
2017-Jan-20 15:31 019 13 gusting 24 6.7
2017-Jan-20 15:16 039 9 gusting 25 6.7
2017-Jan-20 15:01 036 13 gusting 22 6.1
2017-Jan-20 14:46 026 13 gusting 23 6.1
2017-Jan-20 14:31 020 11 gusting 19 6.1
2017-Jan-20 14:15 020 14 gusting 21 6.7
2017-Jan-20 14:00 065 11 gusting 23 6.7
2017-Jan-20 13:45 055 8 gusting 21 6.7
2017-Jan-20 13:30 028 8 gusting 24 6.7
2017-Jan-20 13:15 020 8 gusting 19 6.7
2017-Jan-20 13:00 039 11 gusting 19 6.1
2017-Jan-20 12:45 023 13 gusting 20 6.7
2017-Jan-20 12:30 046 7 gusting 17 6.7
2017-Jan-20 12:15 019 8 gusting 24 6.1
2017-Jan-20 12:00 058 6 gusting 19 6.1
2017-Jan-20 11:45 064 13 gusting 20 5.6
2017-Jan-20 11:31 027 14 gusting 26 5.6
2017-Jan-20 11:16 043 15 gusting 22 5.6
2017-Jan-20 11:01 039 8 gusting 17 5.0
2017-Jan-20 10:46 036 9 gusting 24 5.0
2017-Jan-20 10:31 056 10 gusting 17 5.0
2017-Jan-20 10:16 022 13 gusting 23 4.4
2017-Jan-20 10:01 053 9 gusting 19 4.4
2017-Jan-20 09:46 004 9 gusting 19 3.9
2017-Jan-20 09:31 044 13 gusting 22 3.9
2017-Jan-20 09:16 082 15 gusting 23 3.3
2017-Jan-20 09:01 052 12 gusting 21 3.3
2017-Jan-20 08:46 039 11 gusting 20 3.3
2017-Jan-20 08:31 036 14 gusting 22 3.3
2017-Jan-20 08:15 044 13 gusting 20 3.3
2017-Jan-20 08:00 017 12 gusting 19 3.3
2017-Jan-20 07:45 048 13 gusting 22 3.3
2017-Jan-20 07:30 039 14 gusting 22 3.3
2017-Jan-20 07:15 044 11 gusting 22 3.3
2017-Jan-20 07:00 056 13 gusting 22 3.3
2017-Jan-20 06:45 011 13 gusting 19 3.3
2017-Jan-20 06:30 023 11 gusting 20 3.9
2017-Jan-20 06:15 063 11 gusting 19 3.3
2017-Jan-20 06:00 062 13 gusting 21 3.3
2017-Jan-20 05:45 021 15 gusting 25 3.3
2017-Jan-20 05:31 026 15 gusting 26 3.3
2017-Jan-20 05:16 023 14 gusting 23 3.3
2017-Jan-20 05:00 044 14 gusting 25 3.3
2017-Jan-20 04:46 023 13 gusting 26 3.3
2017-Jan-20 04:31 072 18 gusting 26 3.3
2017-Jan-20 04:16 050 15 gusting 26 3.9
2017-Jan-20 04:01 069 16 gusting 27 3.9
2017-Jan-20 03:46 027 15 gusting 26 3.9
2017-Jan-20 03:31 020 13 gusting 19 3.9
2017-Jan-20 03:16 039 13 gusting 24 3.9
2017-Jan-20 03:01 021 11 gusting 23 3.9
2017-Jan-20 02:46 049 13 gusting 21 3.9
2017-Jan-20 02:31 028 14 gusting 30 3.9
2017-Jan-20 02:15 052 13 gusting 26 3.9
2017-Jan-20 02:00 055 16 gusting 26 3.9
2017-Jan-20 01:30 037 15 gusting 33 3.9
2017-Jan-20 01:15 023 17 gusting 29 3.9
2017-Jan-20 01:00 037 11 gusting 29 3.9
2017-Jan-20 00:45 068 19 gusting 34 3.9
2017-Jan-20 00:30 064 18 gusting 31 3.9
2017-Jan-20 00:16 028 16 gusting 29 3.9
2017-Jan-20 00:00 050 19 gusting 36 3.9
2017-Jan-19 23:46 068 19 gusting 29 3.9
2017-Jan-19 23:31 049 18 gusting 29 3.9
2017-Jan-19 23:15 026 20 gusting 30 3.9
2017-Jan-19 23:01 044 14 gusting 24 3.9
2017-Jan-19 22:46 020 18 gusting 28 3.9
2017-Jan-19 22:31 047 13 gusting 28 3.9
2017-Jan-19 22:16 040 15 gusting 24 3.9
2017-Jan-19 22:01 355 13 gusting 20 3.9
2017-Jan-19 21:46 021 13 gusting 22 3.9
2017-Jan-19 21:31 051 14 gusting 22 3.9
2017-Jan-19 21:16 073 11 gusting 18 3.9
2017-Jan-19 21:01 029 13 gusting 22 3.9
2017-Jan-19 20:46 023 9 gusting 19 3.9
2017-Jan-19 20:31 028 13 gusting 24 3.9
2017-Jan-19 20:15 032 10 gusting 18 3.9
2017-Jan-19 20:00 043 13 gusting 20 3.9
2017-Jan-19 19:45 023 13 gusting 20 3.9
2017-Jan-19 19:30 011 11 gusting 17 3.9
2017-Jan-19 19:15 015 9 gusting 14 3.9
2017-Jan-19 19:00 005 10 gusting 17 3.9
2017-Jan-19 18:45 026 5 gusting 15 3.9
2017-Jan-19 18:30 021 11 gusting 19 4.4
2017-Jan-19 18:15 012 13 gusting 24 4.4
2017-Jan-19 18:00 044 12 gusting 21 4.4
2017-Jan-19 17:46 032 14 gusting 25 5.0
2017-Jan-19 17:30 015 11 gusting 23 5.0
2017-Jan-19 17:16 021 11 gusting 23 5.0
2017-Jan-19 17:01 032 12 gusting 23 5.6